Time;durP1;ratioP1;P1;durP2;ratioP2;P2;SDS_P1;SDS_P2;PMS_P1;PMS_P2;Temp;Humidity;BMP_temperature;BMP_pressure;BME280_temperature;BME280_humidity;BME280_pressure;Samples;Min_cycle;Max_cycle;Signal;HPM_P1;HPM_P2
2022/08/06 00:00:49;;;;;;;1.20;1.10;;;19.00;99.90;;;;;;4933737;29;20111;-48
2022/08/06 00:03:15;;;;;;;5.20;1.80;;;18.90;99.90;;;;;;4933254;29;20131;-44
2022/08/06 00:05:41;;;;;;;3.88;1.98;;;19.20;99.90;;;;;;4933922;29;20063;-44
2022/08/06 00:08:06;;;;;;;5.03;1.38;;;18.90;99.90;;;;;;4934045;29;20496;-45
2022/08/06 00:10:32;;;;;;;2.22;1.60;;;18.80;99.90;;;;;;4933738;29;20035;-46
2022/08/06 00:12:59;;;;;;;3.33;1.55;;;18.80;99.90;;;;;;4933114;29;20023;-45
2022/08/06 00:15:25;;;;;;;2.05;1.38;;;18.80;99.90;;;;;;4933672;29;20036;-46
2022/08/06 00:17:50;;;;;;;31.05;21.17;;;18.70;99.90;;;;;;4937085;29;20075;-44
2022/08/06 00:20:16;;;;;;;10.18;6.10;;;18.80;99.90;;;;;;4936882;29;20028;-44
2022/08/06 00:22:42;;;;;;;5.47;1.77;;;18.70;99.90;;;;;;4936646;29;20106;-44
2022/08/06 00:25:10;;;;;;;1.65;1.30;;;18.70;99.90;;;;;;4937010;29;20068;-43
2022/08/06 00:27:36;;;;;;;1.95;1.77;;;18.70;99.90;;;;;;4936932;29;20035;-45
2022/08/06 00:30:01;;;;;;;1.20;1.20;;;18.60;99.90;;;;;;4937302;29;20078;-46
2022/08/06 00:32:27;;;;;;;5.47;1.30;;;18.60;99.90;;;;;;4936611;29;20516;-45
2022/08/06 00:34:52;;;;;;;3.28;1.35;;;18.50;99.90;;;;;;4937098;29;20028;-45
2022/08/06 00:37:18;;;;;;;3.15;1.33;;;18.60;99.90;;;;;;4937244;29;20027;-44
2022/08/06 00:39:44;;;;;;;2.80;1.30;;;18.50;99.90;;;;;;4936904;29;20493;-44
2022/08/06 00:42:09;;;;;;;1.85;1.35;;;18.60;99.90;;;;;;4936222;29;20044;-44
2022/08/06 00:44:35;;;;;;;1.73;1.10;;;18.50;99.90;;;;;;4936679;29;20028;-44
2022/08/06 00:47:01;;;;;;;4.03;1.08;;;18.60;99.90;;;;;;4936825;29;20083;-46
2022/08/06 00:49:27;;;;;;;3.60;1.17;;;18.60;99.90;;;;;;4936517;29;20067;-44
2022/08/06 00:51:52;;;;;;;1.98;1.13;;;18.50;99.90;;;;;;4936369;29;20039;-43
2022/08/06 00:54:20;;;;;;;1.75;1.15;;;18.50;99.90;;;;;;4936347;29;20024;-44
2022/08/06 00:56:45;;;;;;;3.45;1.27;;;18.40;99.90;;;;;;4936685;29;20040;-46
2022/08/06 00:59:11;;;;;;;2.45;1.30;;;18.40;99.90;;;;;;4935216;29;20091;-45
2022/08/06 01:01:37;;;;;;;2.42;1.55;;;18.30;99.90;;;;;;4936460;29;20023;-44
2022/08/06 01:04:02;;;;;;;6.75;1.65;;;18.40;99.90;;;;;;4936072;29;20023;-43
2022/08/06 01:06:28;;;;;;;1.35;1.25;;;18.30;99.90;;;;;;4936363;29;20040;-45
2022/08/06 01:08:54;;;;;;;4.03;1.30;;;18.20;99.90;;;;;;4936408;29;20075;-45
2022/08/06 01:11:19;;;;;;;1.85;1.20;;;18.20;99.90;;;;;;4936138;29;20499;-44
2022/08/06 01:13:45;;;;;;;1.92;1.30;;;18.20;99.90;;;;;;4935937;29;20028;-45
2022/08/06 01:16:21;;;;;;;2.13;0.90;;;18.10;99.90;;;;;;4936310;29;20054;-44
2022/08/06 01:18:57;;;;;;;1.33;0.98;;;18.00;99.90;;;;;;4936027;29;20040;-43
2022/08/06 01:22:00;;;;;;;2.05;1.05;;;18.00;99.90;;;;;;4936038;29;20039;-46
2022/08/06 01:24:46;;;;;;;2.25;1.25;;;18.00;99.90;;;;;;4935935;29;20110;-44
2022/08/06 01:27:24;;;;;;;2.38;0.70;;;18.00;99.90;;;;;;4935979;29;20036;-44
2022/08/06 01:29:54;;;;;;;2.17;1.15;;;18.00;99.20;;;;;;4935839;29;20084;-44
2022/08/06 01:32:28;;;;;;;2.72;0.80;;;17.90;98.70;;;;;;4934242;29;20032;-44
2022/08/06 01:34:59;;;;;;;2.72;0.70;;;17.90;98.50;;;;;;4934818;29;20489;-45
2022/08/06 01:37:36;;;;;;;2.63;1.15;;;18.00;98.40;;;;;;4935873;29;20489;-49
2022/08/06 01:40:12;;;;;;;0.95;0.70;;;17.80;98.50;;;;;;4934363;29;21130;-45
2022/08/06 01:42:40;;;;;;;1.02;0.80;;;17.80;98.50;;;;;;4935282;29;20386;-48
2022/08/06 01:45:10;;;;;;;2.55;1.20;;;17.80;98.70;;;;;;4935622;29;20059;-47
2022/08/06 01:47:39;;;;;;;2.05;0.90;;;17.70;98.50;;;;;;4935578;29;20108;-46
2022/08/06 01:50:07;;;;;;;3.55;1.38;;;17.60;98.70;;;;;;4934119;29;20027;-43
2022/08/06 01:52:38;;;;;;;3.20;1.42;;;17.60;98.60;;;;;;4935249;29;20027;-44
2022/08/06 01:55:08;;;;;;;0.70;0.70;;;17.60;98.50;;;;;;4935489;29;20034;-44
2022/08/06 01:57:36;;;;;;;2.08;1.42;;;17.60;98.70;;;;;;4935435;29;20046;-45
2022/08/06 02:00:04;;;;;;;2.75;0.88;;;17.50;98.70;;;;;;4935321;29;20038;-44
2022/08/06 02:02:31;;;;;;;2.00;1.13;;;17.50;98.70;;;;;;4949721;28;20118;-45
2022/08/06 02:05:00;;;;;;;3.42;1.10;;;17.40;99.00;;;;;;4935031;29;20034;-44
2022/08/06 02:07:35;;;;;;;0.90;0.90;;;17.40;98.90;;;;;;4935306;29;20035;-48
2022/08/06 02:10:04;;;;;;;4.15;1.27;;;17.40;99.20;;;;;;4935245;29;20032;-48
2022/08/06 02:12:31;;;;;;;7.00;1.90;;;17.50;99.20;;;;;;4933413;29;20114;-48
2022/08/06 02:15:02;;;;;;;2.15;0.70;;;17.50;99.30;;;;;;4933877;29;20421;-45
2022/08/06 02:17:32;;;;;;;5.18;1.38;;;17.50;99.20;;;;;;4935532;29;20040;-47
2022/08/06 02:20:00;;;;;;;1.67;1.00;;;17.40;99.30;;;;;;4934775;29;20027;-43
2022/08/06 02:22:28;;;;;;;3.30;1.20;;;17.40;99.40;;;;;;4935029;29;20405;-45
2022/08/06 02:24:55;;;;;;;1.73;0.90;;;17.30;99.30;;;;;;4934940;29;20118;-44
2022/08/06 02:27:24;;;;;;;1.48;1.02;;;17.30;99.50;;;;;;4934790;29;20098;-45
2022/08/06 02:29:53;;;;;;;1.10;0.90;;;17.20;99.60;;;;;;4934758;29;20030;-45
2022/08/06 02:32:18;;;;;;;1.92;1.20;;;17.20;99.70;;;;;;4934766;29;20034;-47
2022/08/06 02:34:44;;;;;;;1.25;0.80;;;17.10;99.90;;;;;;4934754;29;20035;-48
2022/08/06 02:37:21;;;;;;;1.02;0.90;;;17.00;99.80;;;;;;4934826;29;20560;-45
2022/08/06 02:39:53;;;;;;;2.20;0.88;;;17.00;99.80;;;;;;4934149;29;20050;-46
2022/08/06 02:42:40;;;;;;;0.93;0.93;;;16.90;99.70;;;;;;4934526;29;20031;-44
2022/08/06 02:45:13;;;;;;;0.90;0.80;;;16.90;99.80;;;;;;4933634;29;20125;-44
2022/08/06 02:47:48;;;;;;;1.85;0.90;;;16.80;99.80;;;;;;4934540;29;20035;-45
2022/08/06 02:50:15;;;;;;;;;;;16.80;99.90;;;;;;4934930;29;20035;-45
2022/08/06 02:52:45;;;;;;;0.98;0.80;;;16.80;99.90;;;;;;4934128;29;19913;-46
2022/08/06 02:55:14;;;;;;;1.05;0.88;;;16.80;99.90;;;;;;4934442;29;20035;-46
2022/08/06 02:57:48;;;;;;;5.20;0.98;;;16.80;99.90;;;;;;4934499;29;20505;-45
2022/08/06 03:00:14;;;;;;;1.35;1.05;;;16.80;99.90;;;;;;4934443;29;20082;-43
2022/08/06 03:02:41;;;;;;;1.25;1.00;;;16.70;99.90;;;;;;4935045;29;20500;-44
2022/08/06 03:05:10;;;;;;;0.90;0.90;;;16.70;99.90;;;;;;4934283;29;20099;-46
2022/08/06 03:07:39;;;;;;;0.80;0.80;;;16.70;99.90;;;;;;4934270;29;20504;-48
2022/08/06 03:10:06;;;;;;;2.42;1.55;;;16.60;99.90;;;;;;4934312;29;20031;-47
2022/08/06 03:12:35;;;;;;;3.80;1.10;;;16.60;99.90;;;;;;4933845;29;20030;-47
2022/08/06 03:15:03;;;;;;;1.13;1.00;;;16.50;99.90;;;;;;4934235;29;20552;-44
2022/08/06 03:17:30;;;;;;;5.45;1.85;;;16.60;99.90;;;;;;4934262;29;20036;-46
2022/08/06 03:19:57;;;;;;;4.03;1.05;;;16.60;99.90;;;;;;4933970;29;20140;-48
2022/08/06 03:22:25;;;;;;;1.70;1.08;;;16.60;99.90;;;;;;4933842;29;20028;-49
2022/08/06 03:24:51;;;;;;;6.30;1.27;;;16.60;99.90;;;;;;4932822;29;20404;-45
2022/08/06 03:27:19;;;;;;;1.58;1.15;;;16.60;99.90;;;;;;4934040;29;20036;-44
2022/08/06 03:29:45;;;;;;;2.88;1.48;;;16.50;99.90;;;;;;4934075;29;20031;-46
2022/08/06 03:32:13;;;;;;;1.33;1.08;;;16.50;99.90;;;;;;4933783;29;20115;-44
2022/08/06 03:34:39;;;;;;;1.02;0.82;;;16.50;99.90;;;;;;4948829;29;20031;-47
2022/08/06 03:37:07;;;;;;;2.58;0.93;;;16.40;99.90;;;;;;4934143;29;20043;-46
2022/08/06 03:39:36;;;;;;;1.80;1.05;;;16.40;99.90;;;;;;4933949;29;20220;-44
2022/08/06 03:42:01;;;;;;;3.17;1.00;;;16.40;99.90;;;;;;4933710;29;20035;-48
2022/08/06 03:44:27;;;;;;;1.10;0.90;;;16.40;99.90;;;;;;4934062;28;20042;-45
2022/08/06 03:46:58;;;;;;;2.25;1.15;;;16.30;99.90;;;;;;4933932;29;20443;-45
2022/08/06 03:49:30;;;;;;;0.98;0.90;;;16.30;99.90;;;;;;4934076;29;20473;-45
2022/08/06 03:51:59;;;;;;;2.38;1.17;;;16.30;99.90;;;;;;4936180;29;20031;-44
2022/08/06 03:54:35;;;;;;;2.70;0.98;;;16.20;99.90;;;;;;4938487;29;20034;-45
2022/08/06 03:57:10;;;;;;;1.52;1.08;;;16.20;99.90;;;;;;4938561;29;20035;-45
2022/08/06 03:59:37;;;;;;;;;;;16.20;99.90;;;;;;4938312;29;20508;-46
2022/08/06 04:02:05;;;;;;;3.97;0.93;;;16.10;99.90;;;;;;4937496;29;19950;-44
2022/08/06 04:04:32;;;;;;;2.83;0.80;;;16.10;99.90;;;;;;4937668;29;20031;-45
2022/08/06 04:06:59;;;;;;;2.03;1.33;;;16.10;99.90;;;;;;4937320;29;20453;-45
2022/08/06 04:09:25;;;;;;;1.17;0.73;;;16.10;99.90;;;;;;4937496;29;20020;-45
2022/08/06 04:11:52;;;;;;;2.65;1.08;;;16.00;99.90;;;;;;4937310;29;20063;-47
2022/08/06 04:14:19;;;;;;;2.20;0.90;;;16.10;99.90;;;;;;4936425;29;20024;-47
2022/08/06 04:16:45;;;;;;;1.35;0.90;;;16.00;99.90;;;;;;4937416;29;20046;-45
2022/08/06 04:19:12;;;;;;;4.68;0.90;;;16.00;99.90;;;;;;4937033;29;20032;-47
2022/08/06 04:21:38;;;;;;;3.83;0.93;;;15.90;99.90;;;;;;4937151;29;20036;-46
2022/08/06 04:24:04;;;;;;;4.47;1.13;;;16.00;99.90;;;;;;4936872;29;20031;-46
2022/08/06 04:26:31;;;;;;;4.70;0.82;;;16.00;99.90;;;;;;4935641;29;20058;-45
2022/08/06 04:28:59;;;;;;;1.65;0.90;;;16.00;99.90;;;;;;4937184;29;20035;-46
2022/08/06 04:31:28;;;;;;;1.10;0.80;;;15.90;99.90;;;;;;4936933;29;20027;-50
2022/08/06 04:33:55;;;;;;;1.67;1.00;;;15.80;99.90;;;;;;4936681;29;20032;-45
2022/08/06 04:36:22;;;;;;;3.10;0.93;;;15.80;99.90;;;;;;4936839;29;20028;-45
2022/08/06 04:38:48;;;;;;;1.52;0.90;;;15.80;99.90;;;;;;4936941;29;20059;-44
2022/08/06 04:41:14;;;;;;;2.80;1.00;;;15.90;99.90;;;;;;4936698;29;20418;-45
2022/08/06 04:43:40;;;;;;;1.00;0.80;;;15.90;99.90;;;;;;4936485;29;20035;-46
2022/08/06 04:46:07;;;;;;;3.38;0.88;;;15.90;99.90;;;;;;4936471;29;20087;-43
2022/08/06 04:48:34;;;;;;;2.50;0.90;;;15.80;99.90;;;;;;4936711;29;20511;-44
2022/08/06 04:51:02;;;;;;;1.17;0.93;;;15.80;99.90;;;;;;4936622;29;20036;-45
2022/08/06 04:53:34;;;;;;;3.33;0.88;;;15.90;99.90;;;;;;4936284;29;20469;-48
2022/08/06 04:56:00;;;;;;;1.85;1.00;;;15.90;99.90;;;;;;4936470;29;20035;-44
2022/08/06 04:58:25;;;;;;;2.65;1.00;;;15.90;99.90;;;;;;4936668;29;20039;-43
2022/08/06 05:00:51;;;;;;;1.48;0.70;;;16.00;99.90;;;;;;4935337;29;20482;-44
2022/08/06 05:03:16;;;;;;;0.80;0.80;;;16.00;99.90;;;;;;4934659;29;20031;-45
2022/08/06 05:05:47;;;;;;;1.50;0.88;;;16.10;99.90;;;;;;4936663;29;20031;-47
2022/08/06 05:08:14;;;;;;;3.45;0.80;;;16.50;99.90;;;;;;4935432;29;20492;-44
2022/08/06 05:10:47;;;;;;;0.60;0.60;;;16.60;99.90;;;;;;4936326;29;20023;-45
2022/08/06 05:13:15;;;;;;;1.65;0.90;;;16.80;99.90;;;;;;4936126;29;20023;-45
2022/08/06 05:15:45;;;;;;;2.70;0.77;;;17.00;99.90;;;;;;4935919;29;20055;-48
2022/08/06 05:18:24;;;;;;;4.32;0.90;;;17.20;99.70;;;;;;4936168;29;20028;-45
2022/08/06 05:20:52;;;;;;;2.95;1.02;;;17.40;99.80;;;;;;4935518;29;20055;-45
2022/08/06 05:23:22;;;;;;;1.17;0.63;;;17.60;99.00;;;;;;4935562;29;20111;-46
2022/08/06 05:25:49;;;;;;;2.85;0.82;;;17.60;98.80;;;;;;4935927;29;20486;-45
2022/08/06 05:28:14;;;;;;;1.25;0.70;;;17.90;98.80;;;;;;4935946;29;20024;-45
2022/08/06 05:30:51;;;;;;;1.35;1.10;;;18.10;99.60;;;;;;4935846;29;20042;-47
2022/08/06 05:33:28;;;;;;;2.88;0.82;;;18.30;97.90;;;;;;4935466;29;20119;-47
2022/08/06 05:35:54;;;;;;;2.47;0.77;;;18.50;97.40;;;;;;4950081;29;20115;-44
2022/08/06 05:38:20;;;;;;;1.20;0.70;;;18.70;97.20;;;;;;4936062;29;20031;-45
2022/08/06 05:40:46;;;;;;;1.63;0.80;;;18.90;97.10;;;;;;4935793;29;20119;-47
2022/08/06 05:43:11;;;;;;;2.95;0.90;;;19.10;96.50;;;;;;4935270;29;20497;-47
2022/08/06 05:45:40;;;;;;;4.35;0.90;;;19.10;96.20;;;;;;4934166;29;20066;-45
2022/08/06 05:48:07;;;;;;;1.90;0.80;;;19.30;95.80;;;;;;4935529;29;20025;-48
2022/08/06 05:50:43;;;;;;;3.90;0.95;;;19.30;95.40;;;;;;4935513;29;20042;-47
2022/08/06 05:53:28;;;;;;;1.40;0.80;;;19.20;96.00;;;;;;4935037;29;20210;-48
2022/08/06 05:56:09;;;;;;;2.58;1.25;;;19.50;95.60;;;;;;4935258;28;20032;-44
2022/08/06 05:58:52;;;;;;;1.77;0.70;;;19.90;94.70;;;;;;4935249;28;20083;-47
2022/08/06 06:01:18;;;;;;;3.22;0.90;;;20.30;94.50;;;;;;4933989;29;20024;-45
2022/08/06 06:03:44;;;;;;;2.35;0.57;;;20.50;93.90;;;;;;4935127;29;20452;-47
2022/08/06 06:06:11;;;;;;;2.05;0.95;;;20.70;93.90;;;;;;4934950;29;20066;-45
2022/08/06 06:08:38;;;;;;;2.35;0.80;;;20.80;93.40;;;;;;4934057;29;20170;-46
2022/08/06 06:11:04;;;;;;;1.52;0.75;;;21.00;93.00;;;;;;4934838;29;20477;-44
2022/08/06 06:13:31;;;;;;;7.50;0.95;;;21.10;92.40;;;;;;4934360;28;20028;-45
2022/08/06 06:16:30;;;;;;;1.27;0.90;;;21.10;92.20;;;;;;4935084;29;20317;-46
2022/08/06 06:19:14;;;;;;;5.25;1.08;;;20.80;92.50;;;;;;4934899;29;20024;-44
2022/08/06 06:21:56;;;;;;;4.88;0.90;;;20.30;92.90;;;;;;4934947;29;20019;-46
2022/08/06 06:24:30;;;;;;;2.08;0.65;;;20.80;92.80;;;;;;4934869;29;20028;-46
2022/08/06 06:27:00;;;;;;;2.15;0.77;;;21.00;92.30;;;;;;4934145;29;20036;-47
2022/08/06 06:29:54;;;;;;;3.55;0.85;;;21.00;92.00;;;;;;4924912;29;20099;-45
2022/08/06 06:32:42;;;;;;;0.50;0.50;;;21.50;91.90;;;;;;4929042;29;20028;-45
2022/08/06 06:35:19;;;;;;;2.15;0.70;;;22.00;91.10;;;;;;4937799;29;20107;-47
2022/08/06 06:37:50;;;;;;;4.93;0.88;;;22.10;90.90;;;;;;4935628;29;20041;-48
2022/08/06 06:40:37;;;;;;;2.47;0.85;;;22.40;90.40;;;;;;4926647;29;20023;-47
2022/08/06 06:43:14;;;;;;;2.03;0.70;;;22.70;90.30;;;;;;4925909;29;20082;-47
2022/08/06 06:46:02;;;;;;;1.52;0.77;;;22.70;89.40;;;;;;4935347;29;20106;-49
2022/08/06 06:48:47;;;;;;;2.33;0.70;;;22.40;90.20;;;;;;4946748;29;20024;-46
2022/08/06 06:51:40;;;;;;;4.82;0.80;;;22.80;89.70;;;;;;4937521;28;20062;-47
2022/08/06 06:54:10;;;;;;;1.40;0.63;;;22.80;88.90;;;;;;4934809;29;20066;-45
2022/08/06 06:56:42;;;;;;;3.75;0.50;;;22.60;89.00;;;;;;4934561;29;20055;-48
2022/08/06 06:59:21;;;;;;;3.13;0.50;;;22.60;89.40;;;;;;4934232;29;20028;-46
2022/08/06 07:01:47;;;;;;;2.53;0.60;;;23.00;87.90;;;;;;4933869;29;20043;-46
2022/08/06 07:04:16;;;;;;;6.50;0.90;;;23.70;87.10;;;;;;4934078;29;20051;-48
2022/08/06 07:06:44;;;;;;;1.70;0.70;;;24.10;86.60;;;;;;4940190;29;20310;-49
2022/08/06 07:09:15;;;;;;;3.10;0.50;;;24.30;84.70;;;;;;4940350;28;20110;-44
2022/08/06 07:11:44;;;;;;;3.33;0.63;;;24.90;84.20;;;;;;4933768;29;20075;-46
2022/08/06 07:14:10;;;;;;;2.97;0.70;;;25.20;81.70;;;;;;4933553;29;20047;-47
2022/08/06 07:16:37;;;;;;;2.47;0.70;;;24.90;82.10;;;;;;4934510;29;20409;-51
2022/08/06 07:19:05;;;;;;;2.10;1.30;;;24.80;81.70;;;;;;4933977;29;20027;-51
2022/08/06 07:21:32;;;;;;;0.95;0.60;;;24.40;82.00;;;;;;4934052;29;20382;-54
2022/08/06 07:23:58;;;;;;;2.67;0.55;;;24.60;82.60;;;;;;4933291;29;20043;-53
2022/08/06 07:26:23;;;;;;;1.60;0.70;;;24.70;81.60;;;;;;4937547;29;20036;-50
2022/08/06 07:28:51;;;;;;;1.23;0.60;;;25.30;80.20;;;;;;4938055;29;20400;-51
2022/08/06 07:31:18;;;;;;;4.80;0.98;;;25.50;80.40;;;;;;4937910;29;20030;-52
2022/08/06 07:33:45;;;;;;;4.03;0.65;;;25.60;79.40;;;;;;4937759;29;20032;-51
2022/08/06 07:36:15;;;;;;;1.83;0.60;;;25.80;78.20;;;;;;4937877;29;20063;-50
2022/08/06 07:38:43;;;;;;;1.38;0.60;;;26.00;77.80;;;;;;4937922;29;20035;-50
2022/08/06 07:41:09;;;;;;;1.35;0.50;;;25.70;77.30;;;;;;4937862;29;20036;-51
2022/08/06 07:43:46;;;;;;;1.73;0.75;;;25.80;77.40;;;;;;4937571;29;20028;-53
2022/08/06 07:46:17;;;;;;;2.00;0.73;;;25.80;76.90;;;;;;4937464;29;20027;-49
2022/08/06 07:49:06;;;;;;;0.90;0.43;;;26.70;75.20;;;;;;4936722;29;20032;-48
2022/08/06 07:51:34;;;;;;;2.15;0.70;;;27.10;74.80;;;;;;4949448;29;20046;-53
2022/08/06 07:54:05;;;;;;;1.38;0.60;;;26.90;74.10;;;;;;4936708;29;20095;-48
2022/08/06 07:56:31;;;;;;;3.75;0.73;;;27.80;72.30;;;;;;4937655;29;20115;-47
2022/08/06 07:58:57;;;;;;;0.50;0.50;;;28.70;72.00;;;;;;4935931;29;20039;-50
2022/08/06 08:01:25;;;;;;;2.55;0.60;;;29.00;70.10;;;;;;4927278;29;20039;-50
2022/08/06 08:06:36;;;;;;;13.98;10.65;;;28.70;68.30;;;;;;4918393;29;20507;-47
2022/08/06 08:09:06;;;;;;;1.35;0.50;;;28.60;67.60;;;;;;4924767;29;20122;-44
2022/08/06 08:11:33;;;;;;;7.10;2.83;;;26.90;67.20;;;;;;4939138;29;20091;-43
2022/08/06 08:14:02;;;;;;;2.60;0.38;;;26.00;69.00;;;;;;4939139;28;20572;-51
2022/08/06 08:16:28;;;;;;;1.40;0.80;;;25.80;67.80;;;;;;4937095;29;20485;-46
2022/08/06 08:18:54;;;;;;;6.53;0.50;;;26.40;67.70;;;;;;4936827;29;20103;-49
2022/08/06 08:21:21;;;;;;;2.70;0.90;;;25.70;69.30;;;;;;4936797;29;20031;-45
2022/08/06 08:23:49;;;;;;;1.30;0.60;;;26.70;68.00;;;;;;4934483;29;20032;-50
2022/08/06 08:26:14;;;;;;;2.10;0.95;;;27.00;67.30;;;;;;4936391;29;20099;-47
2022/08/06 08:28:40;;;;;;;1.27;0.57;;;27.00;67.20;;;;;;4927903;29;20028;-52
2022/08/06 08:31:06;;;;;;;3.17;0.70;;;26.90;66.70;;;;;;4930761;29;20128;-53
2022/08/06 08:33:32;;;;;;;0.65;0.60;;;26.30;67.50;;;;;;4936454;29;20051;-48
2022/08/06 08:35:58;;;;;;;1.45;0.65;;;26.50;67.80;;;;;;4934716;29;20027;-52
2022/08/06 08:38:24;;;;;;;4.78;0.60;;;26.70;67.50;;;;;;4936367;29;20069;-50
2022/08/06 08:40:51;;;;;;;3.75;0.77;;;26.30;67.50;;;;;;4936712;29;20114;-49
2022/08/06 08:43:24;;;;;;;2.50;0.90;;;25.40;69.00;;;;;;4934979;29;20446;-52
2022/08/06 08:45:51;;;;;;;2.33;0.70;;;25.20;69.50;;;;;;4935658;29;20494;-52
2022/08/06 08:48:22;;;;;;;1.80;0.63;;;25.00;69.50;;;;;;4936740;29;20023;-51
2022/08/06 08:50:48;;;;;;;1.98;0.73;;;24.60;71.30;;;;;;4936006;29;20027;-48
2022/08/06 08:53:28;;;;;;;2.50;0.88;;;24.70;70.30;;;;;;4934992;29;20111;-49
2022/08/06 08:55:54;;;;;;;3.05;0.60;;;24.40;70.60;;;;;;4936194;29;20059;-50
2022/08/06 08:58:22;;;;;;;6.90;0.65;;;24.00;71.30;;;;;;4935117;29;20485;-49
2022/08/06 09:00:47;;;;;;;3.40;0.70;;;23.70;71.90;;;;;;4936576;29;20487;-51
2022/08/06 09:03:14;;;;;;;1.85;0.70;;;23.30;72.80;;;;;;4936758;29;20047;-51
2022/08/06 09:05:40;;;;;;;1.02;0.70;;;23.10;73.50;;;;;;4936207;29;20043;-51
2022/08/06 09:08:09;;;;;;;3.80;0.75;;;22.60;74.60;;;;;;4951007;29;20031;-50
2022/08/06 09:10:36;;;;;;;3.00;1.05;;;22.20;74.30;;;;;;4936119;29;20024;-47
2022/08/06 09:13:02;;;;;;;3.47;1.38;;;22.10;75.30;;;;;;4935722;29;20382;-49
2022/08/06 09:15:28;;;;;;;2.45;0.80;;;22.30;74.90;;;;;;4936082;29;20095;-49
2022/08/06 09:17:54;;;;;;;4.57;0.77;;;22.20;75.90;;;;;;4936164;29;20078;-54
2022/08/06 09:20:20;;;;;;;1.13;0.68;;;22.10;75.70;;;;;;4935931;29;20281;-52
2022/08/06 09:22:50;;;;;;;1.13;0.77;;;22.30;77.20;;;;;;4935547;29;20023;-47
2022/08/06 09:25:37;;;;;;;1.58;0.70;;;22.40;76.20;;;;;;4936055;29;20035;-48
2022/08/06 09:28:09;;;;;;;2.20;0.70;;;22.50;76.80;;;;;;4935643;29;20074;-49
2022/08/06 09:30:36;;;;;;;1.38;0.57;;;22.40;74.60;;;;;;4935918;29;20024;-54
2022/08/06 09:33:01;;;;;;;3.05;0.57;;;22.60;73.60;;;;;;4935057;29;20039;-47
2022/08/06 09:35:29;;;;;;;1.60;0.60;;;22.30;75.30;;;;;;4935733;29;20031;-49
2022/08/06 09:38:05;;;;;;;1.52;0.73;;;22.50;75.30;;;;;;4935728;29;20124;-49
2022/08/06 09:40:31;;;;;;;1.70;0.68;;;22.30;75.40;;;;;;4934365;29;20500;-48
2022/08/06 09:42:57;;;;;;;0.60;0.60;;;22.20;74.80;;;;;;4935011;29;20042;-49
2022/08/06 09:45:24;;;;;;;3.53;0.60;;;22.00;74.00;;;;;;4935713;29;20043;-50
2022/08/06 09:48:03;;;;;;;0.63;0.55;;;22.10;74.20;;;;;;4934951;29;20030;-49
2022/08/06 09:50:42;;;;;;;0.50;0.50;;;21.90;74.60;;;;;;4935154;29;20031;-51
2022/08/06 09:53:08;;;;;;;1.23;0.63;;;21.80;75.80;;;;;;4934650;29;20024;-50
2022/08/06 09:55:34;;;;;;;4.38;1.50;;;22.00;76.30;;;;;;4935477;29;20028;-52
2022/08/06 09:58:00;;;;;;;4.22;0.80;;;22.20;77.10;;;;;;4935295;29;20027;-51
2022/08/06 10:00:28;;;;;;;6.00;0.70;;;22.40;74.60;;;;;;4935462;29;20083;-48
2022/08/06 10:03:02;;;;;;;4.03;0.85;;;22.50;74.90;;;;;;4934511;29;20094;-49
2022/08/06 10:05:30;;;;;;;1.10;0.95;;;22.50;74.40;;;;;;4934884;29;20042;-50
2022/08/06 10:08:10;;;;;;;3.72;0.95;;;22.50;74.20;;;;;;4934792;29;20036;-52
2022/08/06 10:10:45;;;;;;;16.17;10.95;;;22.50;73.90;;;;;;4935137;29;20034;-52
2022/08/06 10:13:17;;;;;;;1.80;1.70;;;22.50;74.00;;;;;;4934371;29;20020;-53
2022/08/06 10:15:45;;;;;;;1.95;0.68;;;22.30;73.40;;;;;;4934945;29;20027;-51
2022/08/06 10:18:28;;;;;;;4.88;0.68;;;22.00;72.30;;;;;;4934894;29;20027;-51
2022/08/06 10:21:16;;;;;;;4.25;1.05;;;21.90;72.50;;;;;;4935039;29;20123;-50
2022/08/06 10:23:45;;;;;;;2.45;0.65;;;22.00;73.80;;;;;;4932863;29;20028;-50
2022/08/06 10:26:13;;;;;;;4.78;0.70;;;22.20;71.70;;;;;;4934765;29;20027;-53
2022/08/06 10:28:40;;;;;;;2.55;0.70;;;22.30;71.90;;;;;;4935206;29;20028;-50
2022/08/06 10:31:09;;;;;;;0.43;0.38;;;22.20;71.30;;;;;;4934743;29;20441;-51
2022/08/06 10:33:47;;;;;;;1.35;0.50;;;22.10;71.10;;;;;;4935111;29;20024;-49
2022/08/06 10:36:14;;;;;;;2.38;0.60;;;22.20;72.30;;;;;;4934793;29;20039;-48
2022/08/06 10:38:43;;;;;;;1.02;0.50;;;22.10;71.90;;;;;;4934649;29;20110;-49
2022/08/06 10:41:11;;;;;;;5.47;0.68;;;22.20;70.60;;;;;;4934673;29;20035;-50
2022/08/06 10:43:38;;;;;;;2.17;0.77;;;22.00;71.80;;;;;;4934539;29;20036;-50
2022/08/06 10:46:06;;;;;;;0.80;0.60;;;21.80;74.60;;;;;;4934607;29;20024;-50
2022/08/06 10:48:34;;;;;;;10.30;0.75;;;21.60;73.60;;;;;;4934423;29;20024;-51
2022/08/06 10:51:00;;;;;;;6.38;0.70;;;21.60;74.80;;;;;;4934391;29;20031;-51
2022/08/06 10:53:26;;;;;;;1.95;0.50;;;21.80;73.70;;;;;;4934206;29;20482;-49
2022/08/06 10:55:53;;;;;;;1.33;0.73;;;22.00;72.30;;;;;;4934524;29;20038;-49
2022/08/06 10:58:19;;;;;;;2.03;1.27;;;22.00;71.10;;;;;;4934544;29;20028;-51
2022/08/06 11:00:45;;;;;;;4.90;0.60;;;22.00;71.00;;;;;;4934190;29;20074;-49
2022/08/06 11:04:08;;;;;;;2.65;0.50;;;22.10;71.10;;;;;;4933723;29;20134;-50
2022/08/06 11:06:33;;;;;;;2.70;0.50;;;22.30;66.10;;;;;;4909050;29;20036;-58
2022/08/06 11:09:26;;;;;;;0.73;0.50;;;22.20;67.20;;;;;;4910846;29;20216;-49
2022/08/06 11:12:14;;;;;;;1.33;0.55;;;22.20;70.30;;;;;;4914632;29;20533;-49
2022/08/06 11:14:40;;;;;;;0.40;0.40;;;22.30;68.70;;;;;;4924750;29;20036;-52
2022/08/06 11:17:06;;;;;;;0.93;0.25;;;22.20;68.00;;;;;;4934185;29;20031;-48
2022/08/06 11:19:42;;;;;;;2.17;0.68;;;21.80;65.10;;;;;;4934096;29;20043;-49
2022/08/06 11:22:08;;;;;;;1.13;0.47;;;21.70;67.50;;;;;;4932919;29;20546;-50
2022/08/06 11:24:48;;;;;;;27.83;19.58;;;21.80;70.90;;;;;;4934340;29;20058;-50
2022/08/06 11:27:53;;;;;;;4.00;2.22;;;21.90;69.00;;;;;;4934823;29;20115;-52
2022/08/06 11:30:20;;;;;;;1.38;0.65;;;21.90;70.20;;;;;;4932805;29;20071;-50
2022/08/06 11:32:47;;;;;;;1.77;0.70;;;22.00;71.10;;;;;;4933374;29;20039;-49
2022/08/06 11:35:32;;;;;;;0.63;0.50;;;22.20;71.10;;;;;;4933989;29;20020;-48
2022/08/06 11:37:58;;;;;;;;;;;22.10;70.80;;;;;;4933179;29;20023;-49
2022/08/06 11:40:24;;;;;;;1.08;0.50;;;22.10;69.20;;;;;;4934142;29;19914;-45
2022/08/06 11:42:50;;;;;;;0.60;0.50;;;22.10;70.80;;;;;;4933820;29;20485;-44
2022/08/06 11:45:17;;;;;;;3.55;0.50;;;22.00;70.60;;;;;;4933865;29;20027;-46
2022/08/06 11:48:05;;;;;;;0.52;0.52;;;22.10;70.10;;;;;;4933779;29;20028;-45
2022/08/06 11:50:31;;;;;;;0.80;0.57;;;22.10;70.20;;;;;;4933782;29;20028;-49
2022/08/06 11:52:57;;;;;;;1.88;0.73;;;22.20;69.40;;;;;;4933834;29;20098;-48
2022/08/06 11:55:22;;;;;;;2.92;0.88;;;22.30;68.80;;;;;;4933965;29;20036;-45
2022/08/06 11:57:49;;;;;;;1.10;0.40;;;22.20;68.40;;;;;;4934109;29;20023;-49
2022/08/06 12:00:18;;;;;;;2.72;0.90;;;22.30;67.90;;;;;;4933821;29;20111;-48
2022/08/06 12:02:49;;;;;;;0.45;0.38;;;22.30;68.60;;;;;;4933375;29;20489;-48
2022/08/06 12:05:14;;;;;;;4.55;1.48;;;22.30;68.60;;;;;;4932853;29;20119;-47
2022/08/06 12:07:44;;;;;;;18.45;2.72;;;22.40;70.20;;;;;;4932668;29;20111;-47
2022/08/06 12:10:13;;;;;;;0.57;0.57;;;22.60;69.50;;;;;;4933473;29;20114;-46
2022/08/06 12:12:42;;;;;;;0.57;0.57;;;22.60;66.20;;;;;;4935486;29;20023;-49
2022/08/06 12:15:23;;;;;;;8.05;6.15;;;22.60;67.60;;;;;;4938182;29;20505;-49
2022/08/06 12:17:54;;;;;;;65.97;48.03;;;22.80;69.80;;;;;;4936513;29;20039;-49
2022/08/06 12:20:35;;;;;;;0.90;0.73;;;22.60;66.60;;;;;;4937761;29;20059;-47
2022/08/06 12:23:03;;;;;;;2.05;1.23;;;22.60;64.70;;;;;;4936912;29;20365;-47
2022/08/06 12:25:38;;;;;;;1.70;0.70;;;22.60;66.30;;;;;;4938681;29;20115;-47
2022/08/06 12:28:05;;;;;;;0.40;0.40;;;22.50;65.80;;;;;;4938128;29;20080;-50
2022/08/06 12:30:48;;;;;;;2.38;0.50;;;22.60;66.50;;;;;;4938078;29;20028;-47
2022/08/06 12:33:15;;;;;;;0.90;0.40;;;22.60;65.90;;;;;;4937075;29;20023;-46
2022/08/06 12:35:49;;;;;;;3.08;0.50;;;22.70;65.00;;;;;;4939441;29;20024;-45
2022/08/06 12:38:14;;;;;;;1.25;0.77;;;22.70;65.00;;;;;;4938274;29;20082;-46
2022/08/06 12:40:40;;;;;;;0.82;0.47;;;22.70;64.90;;;;;;4938482;29;20031;-47
2022/08/06 12:43:05;;;;;;;0.85;0.55;;;22.60;64.40;;;;;;4938346;29;20118;-49
2022/08/06 12:45:32;;;;;;;2.50;0.40;;;22.40;64.40;;;;;;4938345;29;20099;-47
2022/08/06 12:48:12;;;;;;;0.70;0.60;;;22.30;64.40;;;;;;4938474;29;20061;-48
2022/08/06 12:50:43;;;;;;;1.55;0.57;;;22.30;64.50;;;;;;4938717;29;20024;-45
2022/08/06 12:53:16;;;;;;;4.18;0.55;;;22.40;65.80;;;;;;4938031;29;20023;-46
2022/08/06 12:55:46;;;;;;;1.77;0.40;;;22.60;63.90;;;;;;4938742;29;20393;-47
2022/08/06 12:58:18;;;;;;;3.85;0.60;;;22.70;64.10;;;;;;4939093;29;20066;-47
2022/08/06 13:00:48;;;;;;;2.78;0.50;;;22.80;63.90;;;;;;4937120;29;20036;-46
2022/08/06 13:03:17;;;;;;;2.55;0.50;;;22.90;63.10;;;;;;4935974;29;20494;-48
2022/08/06 13:05:44;;;;;;;3.17;0.55;;;23.00;64.30;;;;;;4935392;29;20505;-48